Time;durP1;ratioP1;P1;durP2;ratioP2;P2;SDS_P1;SDS_P2;PMS_P1;PMS_P2;Temp;Humidity;BMP_temperature;BMP_pressure;BME280_temperature;BME280_humidity;BME280_pressure;Samples;Min_cycle;Max_cycle;Signal;HPM_P1;HPM_P2
2021/08/12 00:03:34;;;;;;;6.88;4.35;;;;;;;15.18;80.58;101921.25;10461889;28;20052;-61
2021/08/12 00:08:36;;;;;;;7.90;5.38;;;;;;;14.96;81.78;101909.34;10460915;28;20053;-62
2021/08/12 00:13:39;;;;;;;6.57;5.85;;;;;;;14.77;82.61;101892.88;10461999;28;20057;-62
2021/08/12 00:18:42;;;;;;;11.15;5.90;;;;;;;14.48;83.84;101890.94;10459446;28;20413;-62
2021/08/12 00:23:45;;;;;;;7.72;4.88;;;;;;;14.70;81.90;101881.00;10460964;28;20052;-62
2021/08/12 00:28:47;;;;;;;9.57;5.28;;;;;;;14.52;83.13;101881.06;10460463;28;20056;-62
2021/08/12 00:33:50;;;;;;;7.80;5.38;;;;;;;14.49;82.78;101876.84;10460515;28;20048;-62
2021/08/12 00:38:52;;;;;;;5.80;4.32;;;;;;;14.31;83.14;101883.97;10459996;28;20512;-62
2021/08/12 00:43:54;;;;;;;6.68;4.60;;;;;;;14.34;83.03;101890.00;10460171;28;20049;-62
2021/08/12 00:48:57;;;;;;;7.13;5.32;;;;;;;14.21;83.34;101874.88;10460374;28;20083;-62
2021/08/12 00:54:01;;;;;;;8.32;5.43;;;;;;;14.29;83.17;101869.22;10458367;28;20501;-62
2021/08/12 00:59:03;;;;;;;5.85;4.32;;;;;;;14.38;82.49;101879.22;10457647;28;20413;-62
2021/08/12 01:04:05;;;;;;;6.95;4.90;;;;;;;14.08;83.91;101861.53;10459150;28;20052;-62
2021/08/12 01:09:17;;;;;;;6.75;4.30;;;;;;;14.18;82.79;101861.88;10458551;28;20484;-62
2021/08/12 01:14:38;;;;;;;;;;;;;;;13.96;84.00;101871.91;10458064;28;20123;-62
2021/08/12 01:19:40;;;;;;;6.38;5.45;;;;;;;13.99;83.06;101872.59;10458580;28;20419;-62
2021/08/12 01:24:46;;;;;;;6.25;4.50;;;;;;;13.96;83.51;101875.38;10458320;28;20076;-62
2021/08/12 01:30:07;;;;;;;7.45;4.95;;;;;;;13.98;83.38;101878.78;10457049;28;20053;-62
2021/08/12 01:35:13;;;;;;;8.95;5.25;;;;;;;13.80;84.88;101888.56;10457570;28;20056;-62
2021/08/12 01:40:18;;;;;;;7.53;6.00;;;;;;;13.83;84.74;101888.34;10456531;28;20405;-62
2021/08/12 01:45:21;;;;;;;5.00;4.57;;;;;;;13.98;84.26;101881.41;10456344;28;20060;-61
2021/08/12 01:50:25;;;;;;;8.07;5.65;;;;;;;14.16;83.87;101886.63;10456329;28;20060;-62
2021/08/12 01:55:31;;;;;;;8.48;5.28;;;;;;;14.35;83.47;101886.44;10456329;28;20049;-62
2021/08/12 02:00:34;;;;;;;9.75;4.70;;;;;;;14.50;82.91;101891.69;10455786;28;20503;-61
2021/08/12 02:05:37;;;;;;;5.82;4.88;;;;;;;14.27;84.51;101871.94;10455831;28;20060;-62
2021/08/12 02:10:43;;;;;;;8.98;4.70;;;;;;;14.35;84.51;101865.38;10455657;28;20052;-61
2021/08/12 02:15:46;;;;;;;8.57;5.20;;;;;;;14.28;83.53;101864.88;10456563;28;20045;-62
2021/08/12 02:21:14;;;;;;;9.43;5.70;;;;;;;14.35;83.89;101868.00;10456519;28;20405;-62
2021/08/12 02:26:20;;;;;;;9.27;5.50;;;;;;;14.15;84.64;101864.69;10455385;28;20060;-61
2021/08/12 02:31:23;;;;;;;8.18;4.53;;;;;;;14.35;83.46;101855.66;10456448;28;20041;-62
2021/08/12 02:36:26;;;;;;;9.95;5.32;;;;;;;14.46;83.14;101850.66;10455164;28;20053;-62
2021/08/12 02:41:28;;;;;;;7.38;5.88;;;;;;;14.49;82.80;101845.22;10456325;28;20045;-62
2021/08/12 02:46:31;;;;;;;7.53;6.63;;;;;;;14.33;83.52;101846.19;10460208;28;20053;-61
2021/08/12 02:51:34;;;;;;;9.82;6.70;;;;;;;14.56;82.69;101839.56;10463155;28;20045;-61
2021/08/12 02:56:37;;;;;;;7.78;5.68;;;;;;;14.60;83.46;101833.22;10464232;28;20072;-62
2021/08/12 03:01:40;;;;;;;9.05;6.20;;;;;;;14.58;83.54;101835.09;10462712;28;20045;-62
2021/08/12 03:06:44;;;;;;;9.75;6.28;;;;;;;14.40;83.32;101835.19;10462550;28;20509;-62
2021/08/12 03:11:47;;;;;;;9.63;6.72;;;;;;;14.42;83.74;101825.41;10462345;28;20067;-62
2021/08/12 03:16:50;;;;;;;10.23;6.22;;;;;;;14.34;84.06;101822.38;10463896;28;20056;-62
2021/08/12 03:22:09;;;;;;;8.77;7.00;;;;;;;14.24;84.42;101824.69;10462172;28;20060;-62
2021/08/12 03:27:12;;;;;;;8.35;6.05;;;;;;;14.10;85.19;101835.13;10462432;28;20052;-62
2021/08/12 03:32:15;;;;;;;9.02;6.35;;;;;;;14.15;83.55;101843.63;10461815;28;20397;-62
2021/08/12 03:37:17;;;;;;;8.10;5.95;;;;;;;13.98;84.93;101838.44;10462324;28;20056;-62
2021/08/12 03:42:19;;;;;;;9.88;6.22;;;;;;;13.94;85.25;101835.97;10462761;28;20067;-61
2021/08/12 03:47:22;;;;;;;7.65;6.15;;;;;;;13.86;84.95;101832.06;10461010;28;20413;-62
2021/08/12 03:52:24;;;;;;;8.85;7.22;;;;;;;13.48;86.13;101837.63;10461216;28;20055;-62
2021/08/12 03:57:26;;;;;;;8.75;6.82;;;;;;;13.78;85.44;101845.66;10460776;28;20527;-62
2021/08/12 04:02:29;;;;;;;11.93;7.85;;;;;;;13.66;85.98;101846.31;10462541;28;20052;-62
2021/08/12 04:07:31;;;;;;;11.32;7.70;;;;;;;13.62;85.30;101853.53;10461344;28;20420;-62
2021/08/12 04:12:34;;;;;;;12.60;8.20;;;;;;;13.43;85.81;101847.53;10461472;28;20045;-62
2021/08/12 04:17:36;;;;;;;15.18;7.85;;;;;;;13.34;85.68;101852.34;10460411;28;20112;-62
2021/08/12 04:22:38;;;;;;;12.00;7.82;;;;;;;13.29;86.20;101850.84;10461149;28;20045;-62
2021/08/12 04:27:40;;;;;;;17.27;8.68;;;;;;;13.47;85.42;101854.34;10460863;28;20056;-62
2021/08/12 04:32:43;;;;;;;11.65;8.68;;;;;;;13.42;85.95;101851.94;10460950;28;20052;-62
2021/08/12 04:37:45;;;;;;;14.15;9.57;;;;;;;13.50;85.96;101852.41;10460281;28;20485;-61
2021/08/12 04:42:49;;;;;;;13.05;7.50;;;;;;;13.65;85.54;101847.22;10459536;28;20053;-62
2021/08/12 04:47:52;;;;;;;10.23;6.88;;;;;;;13.72;85.24;101848.63;10458542;28;20063;-62
2021/08/12 04:52:54;;;;;;;11.60;7.20;;;;;;;13.71;85.61;101849.56;10458774;28;20045;-62
2021/08/12 04:57:56;;;;;;;18.77;8.15;;;;;;;13.69;85.64;101844.38;10459414;28;20064;-62
2021/08/12 05:02:59;;;;;;;11.00;7.63;;;;;;;13.84;85.64;101855.84;10459979;28;20045;-62
2021/08/12 05:08:03;;;;;;;16.02;9.98;;;;;;;13.57;85.88;101855.56;10458994;28;20124;-62
2021/08/12 05:13:05;;;;;;;13.18;8.93;;;;;;;13.72;85.63;101857.38;10458896;28;20408;-63
2021/08/12 05:18:08;;;;;;;15.95;8.82;;;;;;;13.84;85.09;101868.16;10458320;28;20123;-62
2021/08/12 05:23:11;;;;;;;11.20;8.55;;;;;;;13.71;85.89;101862.72;10457366;28;20049;-63
2021/08/12 05:28:14;;;;;;;14.10;10.23;;;;;;;13.75;85.66;101869.50;10458368;28;20365;-63
2021/08/12 05:33:16;;;;;;;13.13;10.07;;;;;;;13.90;85.10;101855.53;10456808;28;20491;-63
2021/08/12 05:38:19;;;;;;;13.10;10.02;;;;;;;13.89;85.97;101863.50;10458344;28;20057;-63
2021/08/12 05:43:21;;;;;;;13.10;9.52;;;;;;;13.81;85.94;101855.16;10456465;28;20045;-63
2021/08/12 05:48:23;;;;;;;13.25;9.32;;;;;;;14.28;84.50;101859.59;10457364;28;20124;-63
2021/08/12 05:53:29;;;;;;;13.57;10.52;;;;;;;14.09;85.42;101858.00;10457600;28;20048;-63
2021/08/12 05:58:35;;;;;;;11.10;8.77;;;;;;;14.32;84.74;101861.09;10457101;28;20128;-63
2021/08/12 06:03:37;;;;;;;12.93;11.10;;;;;;;14.28;85.50;101872.75;10457052;28;20049;-63
2021/08/12 06:08:40;;;;;;;14.25;10.07;;;;;;;14.52;85.21;101878.44;10456859;28;20049;-63
2021/08/12 06:13:43;;;;;;;12.18;9.48;;;;;;;14.70;83.75;101881.84;10456109;28;20060;-63
2021/08/12 06:18:45;;;;;;;15.30;9.18;;;;;;;15.05;83.49;101878.94;10456047;28;20056;-63
2021/08/12 06:23:47;;;;;;;16.17;10.07;;;;;;;15.11;83.61;101880.34;10455394;28;20052;-63
2021/08/12 06:28:50;;;;;;;13.63;9.98;;;;;;;15.53;83.38;101886.63;10456504;28;20053;-63
2021/08/12 06:33:53;;;;;;;16.20;10.95;;;;;;;15.45;83.16;101883.59;10456496;28;20045;-62
2021/08/12 06:38:59;;;;;;;17.02;11.98;;;;;;;16.12;83.10;101889.16;10456047;28;20053;-63
2021/08/12 06:44:01;;;;;;;14.23;8.55;;;;;;;15.82;79.85;101887.53;10456152;28;20507;-63
2021/08/12 06:49:04;;;;;;;13.00;10.15;;;;;;;16.31;80.02;101880.91;10455951;28;20409;-63
2021/08/12 06:54:06;;;;;;;18.52;15.88;;;;;;;16.42;84.10;101888.97;10456219;28;20048;-63
2021/08/12 06:59:08;;;;;;;14.77;11.60;;;;;;;16.75;81.67;101879.78;10455897;28;20045;-63
2021/08/12 07:04:10;;;;;;;13.88;11.55;;;;;;;16.91;81.71;101890.22;10455688;28;20477;-63
2021/08/12 07:09:13;;;;;;;13.45;10.45;;;;;;;17.20;80.64;101892.72;10455725;28;20071;-63
2021/08/12 07:14:15;;;;;;;10.25;8.57;;;;;;;17.53;79.53;101892.19;10454959;28;20049;-63
2021/08/12 07:19:18;;;;;;;7.35;6.43;;;;;;;17.83;75.63;101881.22;10454087;28;20404;-63
2021/08/12 07:24:21;;;;;;;5.32;4.05;;;;;;;18.58;71.34;101884.72;10455454;28;20045;-63
2021/08/12 07:29:27;;;;;;;7.93;5.57;;;;;;;19.06;70.08;101882.03;10455351;28;20048;-63
2021/08/12 07:34:29;;;;;;;8.05;5.63;;;;;;;19.73;66.36;101875.06;10461090;28;20053;-63
2021/08/12 07:39:32;;;;;;;9.35;5.68;;;;;;;20.11;63.12;101876.53;10462407;28;20128;-63
2021/08/12 07:44:34;;;;;;;5.97;4.38;;;;;;;20.81;63.94;101879.66;10461445;28;20052;-63
2021/08/12 07:49:37;;;;;;;9.68;6.03;;;;;;;21.30;61.35;101882.63;10462005;28;20162;-63
2021/08/12 07:54:39;;;;;;;8.65;5.35;;;;;;;21.68;59.32;101870.50;10461983;28;20396;-63
2021/08/12 07:59:41;;;;;;;6.20;5.57;;;;;;;21.51;58.89;101883.47;10461706;28;20045;-63
2021/08/12 08:04:44;;;;;;;9.68;5.13;;;;;;;21.81;57.01;101871.13;10461795;28;20052;-63
2021/08/12 08:09:46;;;;;;;11.38;6.53;;;;;;;21.60;56.38;101870.34;10461276;28;20053;-63
2021/08/12 08:14:48;;;;;;;9.35;6.90;;;;;;;22.23;57.11;101872.75;10461468;28;20127;-63
2021/08/12 08:19:51;;;;;;;8.25;5.55;;;;;;;22.96;56.17;101867.00;10460644;28;20045;-63
2021/08/12 08:24:53;;;;;;;6.00;5.40;;;;;;;23.28;53.76;101872.00;10460949;28;20052;-63
2021/08/12 08:29:55;;;;;;;7.95;5.68;;;;;;;23.56;53.77;101880.06;10459338;28;20049;-63
2021/08/12 08:34:58;;;;;;;8.13;5.32;;;;;;;23.77;53.30;101887.00;10459482;28;20049;-63
2021/08/12 08:40:00;;;;;;;10.13;6.97;;;;;;;23.26;53.65;101884.69;10458740;28;20041;-63
2021/08/12 08:45:03;;;;;;;7.65;6.35;;;;;;;24.20;51.68;101878.34;10459802;28;20049;-63
2021/08/12 08:50:06;;;;;;;7.72;6.93;;;;;;;24.61;50.07;101880.59;10460077;28;20061;-63
2021/08/12 08:55:08;;;;;;;11.10;6.90;;;;;;;24.43;51.83;101877.91;10458535;28;20071;-63
2021/08/12 09:00:11;;;;;;;11.00;6.55;;;;;;;24.53;51.85;101878.66;10459410;28;20440;-63
2021/08/12 09:05:14;;;;;;;7.03;6.20;;;;;;;24.74;50.24;101877.53;10458168;28;20057;-64
2021/08/12 09:10:17;;;;;;;6.80;5.85;;;;;;;25.37;49.76;101884.53;10457938;28;20049;-64
2021/08/12 09:15:20;;;;;;;6.53;5.93;;;;;;;25.76;50.44;101889.38;10459109;28;20057;-64
2021/08/12 09:20:27;;;;;;;8.93;5.57;;;;;;;25.91;48.00;101871.66;10457556;28;20041;-62
2021/08/12 09:25:34;;;;;;;6.97;5.80;;;;;;;26.12;48.61;101873.91;10458247;28;20489;-62
2021/08/12 09:30:36;;;;;;;9.88;5.07;;;;;;;26.44;47.61;101872.28;10456840;28;20490;-63
2021/08/12 09:35:39;;;;;;;10.90;5.47;;;;;;;25.83;49.28;101873.47;10457957;28;20056;-63
2021/08/12 09:40:43;;;;;;;9.93;5.80;;;;;;;26.01;47.67;101876.06;10458025;28;20045;-63
2021/08/12 09:45:45;;;;;;;5.55;4.45;;;;;;;27.34;47.64;101866.03;10457597;28;20048;-63
2021/08/12 09:51:06;;;;;;;5.13;4.50;;;;;;;27.20;45.28;101869.38;10456207;28;20060;-63
2021/08/12 09:56:10;;;;;;;8.00;4.82;;;;;;;27.81;44.70;101869.69;10456922;28;20056;-63
2021/08/12 10:01:20;;;;;;;4.40;4.00;;;;;;;28.13;46.41;101870.56;10439283;28;20052;-63
2021/08/12 10:06:25;;;;;;;5.57;3.95;;;;;;;28.21;43.52;101866.94;10456035;28;20128;-63
2021/08/12 10:11:31;;;;;;;5.65;3.55;;;;;;;28.19;44.15;101868.97;10457248;28;20059;-63
2021/08/12 10:16:38;;;;;;;6.13;3.80;;;;;;;27.97;43.87;101864.25;10439538;28;20055;-63
2021/08/12 10:21:41;;;;;;;4.05;3.42;;;;;;;29.68;43.51;101862.00;10457214;28;20052;-63
2021/08/12 10:26:46;;;;;;;7.78;4.07;;;;;;;29.40;44.07;101872.63;10455447;28;20049;-63
2021/08/12 10:31:49;;;;;;;7.13;3.78;;;;;;;29.01;43.70;101871.00;10455315;28;20049;-63
2021/08/12 10:36:51;;;;;;;14.00;6.22;;;;;;;28.13;44.18;101860.63;10454806;28;20470;-63
2021/08/12 10:41:54;;;;;;;4.07;3.35;;;;;;;29.83;39.55;101852.03;10455129;28;20508;-63
2021/08/12 10:46:56;;;;;;;6.13;3.60;;;;;;;29.70;43.47;101856.41;10454818;28;20056;-63
2021/08/12 10:52:09;;;;;;;4.38;3.83;;;;;;;30.36;40.91;101854.47;10456431;28;20057;-63
2021/08/12 10:57:19;;;;;;;7.03;3.45;;;;;;;30.54;41.38;101851.28;10455755;28;20049;-63
2021/08/12 11:02:27;;;;;;;5.65;3.50;;;;;;;30.80;39.72;101854.38;10454954;28;20045;-64
2021/08/12 11:07:39;;;;;;;6.90;3.40;;;;;;;29.12;41.37;101859.78;10460308;28;20049;-63
2021/08/12 11:13:01;;;;;;;4.90;3.70;;;;;;;28.38;41.15;101846.97;10464143;28;20045;-63
2021/08/12 11:18:04;;;;;;;8.77;4.15;;;;;;;30.90;38.07;101846.75;10462033;28;20049;-63
2021/08/12 11:23:19;;;;;;;6.40;3.58;;;;;;;30.16;41.48;101853.38;10462648;28;20049;-63
2021/08/12 11:28:39;;;;;;;4.80;3.50;;;;;;;29.88;39.16;101858.72;10463102;28;20049;-63
2021/08/12 11:34:01;;;;;;;4.95;4.13;;;;;;;29.92;39.97;101849.22;10463114;28;20041;-64
2021/08/12 11:39:10;;;;;;;4.15;3.75;;;;;;;30.51;39.86;101840.03;10461964;28;20080;-64
2021/08/12 11:44:14;;;;;;;5.00;3.88;;;;;;;30.91;38.02;101830.34;10461344;28;20481;-64
2021/08/12 11:49:17;;;;;;;3.65;3.35;;;;;;;30.31;42.01;101837.97;10461265;28;20049;-63
2021/08/12 11:54:26;;;;;;;6.22;3.20;;;;;;;30.55;41.16;101839.44;10462091;28;20045;-63
2021/08/12 11:59:30;;;;;;;7.40;3.55;;;;;;;30.07;41.15;101839.19;10462236;28;20056;-63
2021/08/12 12:04:33;;;;;;;6.18;3.08;;;;;;;28.88;46.61;101845.53;10460514;28;20386;-63
2021/08/12 12:09:36;;;;;;;3.97;3.58;;;;;;;28.45;42.71;101844.41;10460394;28;20045;-63
2021/08/12 12:14:43;;;;;;;4.70;3.20;;;;;;;29.52;40.90;101856.81;10461722;28;20057;-63
2021/08/12 12:20:05;;;;;;;4.65;3.00;;;;;;;29.02;42.18;101848.44;10460181;28;20053;-63
2021/08/12 12:25:11;;;;;;;4.05;3.22;;;;;;;29.27;42.96;101846.34;10461195;28;20061;-63
2021/08/12 12:30:15;;;;;;;4.30;3.10;;;;;;;29.01;43.85;101847.59;10459517;28;20052;-64
2021/08/12 12:35:17;;;;;;;5.07;3.88;;;;;;;28.46;43.39;101846.06;10457702;28;20045;-64
2021/08/12 12:40:22;;;;;;;4.13;3.53;;;;;;;27.87;44.16;101852.00;10460429;28;20049;-64
2021/08/12 12:45:24;;;;;;;4.20;3.80;;;;;;;27.29;47.25;101846.88;10459156;28;20049;-63
2021/08/12 12:50:27;;;;;;;6.10;3.22;;;;;;;27.40;46.67;101841.13;10459725;28;20405;-64
2021/08/12 12:55:34;;;;;;;6.20;3.95;;;;;;;27.89;47.23;101842.75;10459877;28;20079;-64
2021/08/12 13:00:38;;;;;;;7.05;4.38;;;;;;;27.74;46.77;101841.78;10459597;28;20068;-64
2021/08/12 13:05:54;;;;;;;6.72;3.63;;;;;;;27.18;48.48;101845.34;10459365;28;20057;-64
2021/08/12 13:11:09;;;;;;;4.93;4.20;;;;;;;27.28;46.09;101841.66;10458993;28;20057;-63
2021/08/12 13:16:13;;;;;;;33.10;5.43;;;;;;;26.84;48.94;101838.38;10459464;28;20053;-64
2021/08/12 13:21:36;;;;;;;8.50;4.30;;;;;;;26.89;47.87;101840.56;10458550;28;20497;-65
2021/08/12 13:26:39;;;;;;;8.70;4.20;;;;;;;26.28;50.10;101834.69;10458586;28;20053;-63
2021/08/12 13:31:43;;;;;;;5.55;4.40;;;;;;;26.46;50.18;101837.19;10457055;28;20408;-62
2021/08/12 13:36:46;;;;;;;6.65;4.15;;;;;;;26.34;51.00;101828.66;10458181;28;20055;-63
2021/08/12 13:41:51;;;;;;;6.68;3.88;;;;;;;26.66;49.96;101838.59;10457981;28;20060;-64
2021/08/12 13:46:57;;;;;;;6.35;4.32;;;;;;;26.36;49.26;101831.16;10458262;28;20056;-62
2021/08/12 13:52:00;;;;;;;12.57;4.55;;;;;;;26.73;50.74;101830.69;10458215;28;20052;-63
2021/08/12 13:57:06;;;;;;;27.17;6.22;;;;;;;26.94;46.89;101832.84;10457421;28;20045;-64
2021/08/12 14:02:09;;;;;;;7.45;4.40;;;;;;;27.07;47.61;101829.63;10457179;28;20477;-64
2021/08/12 14:07:11;;;;;;;8.00;4.53;;;;;;;27.46;48.92;101833.38;10455889;28;20045;-62
2021/08/12 14:12:14;;;;;;;10.52;4.55;;;;;;;27.41;49.64;101823.97;10456839;28;20413;-62
2021/08/12 14:17:16;;;;;;;10.85;5.22;;;;;;;26.53;49.47;101827.50;10456519;28;20052;-60
2021/08/12 14:22:19;;;;;;;17.25;5.30;;;;;;;25.26;55.49;101834.69;10456549;28;20048;-61
2021/08/12 14:27:21;;;;;;;14.98;5.53;;;;;;;27.69;47.27;101831.59;10456617;28;20393;-61
2021/08/12 14:32:23;;;;;;;20.95;5.07;;;;;;;28.82;45.30;101819.31;10456429;28;20048;-61
2021/08/12 14:37:25;;;;;;;8.95;5.32;;;;;;;28.08;46.68;101809.16;10456217;28;20048;-61
2021/08/12 14:42:28;;;;;;;12.02;5.05;;;;;;;28.40;45.77;101809.09;10461094;28;20481;-62
2021/08/12 14:47:30;;;;;;;13.60;5.75;;;;;;;27.57;47.29;101801.56;10464440;28;20051;-61
2021/08/12 14:52:33;;;;;;;33.72;6.85;;;;;;;27.34;49.99;101797.97;10464480;28;20420;-61
2021/08/12 14:57:35;;;;;;;12.40;5.70;;;;;;;28.33;45.41;101800.91;10464192;28;20049;-61
2021/08/12 15:02:38;;;;;;;7.38;4.93;;;;;;;27.23;47.53;101807.22;10464260;28;20049;-60
2021/08/12 15:07:40;;;;;;;13.23;5.00;;;;;;;26.27;52.80;101801.63;10464272;28;20045;-60
2021/08/12 15:12:42;;;;;;;6.93;4.35;;;;;;;25.87;54.56;101805.94;10462629;28;20060;-60
2021/08/12 15:17:45;;;;;;;9.50;4.60;;;;;;;25.86;55.79;101801.56;10463232;28;20382;-59
2021/08/12 15:22:48;;;;;;;4.30;3.90;;;;;;;25.69;56.84;101806.06;10463575;28;20099;-60
2021/08/12 15:27:51;;;;;;;8.43;4.93;;;;;;;25.21;58.99;101805.66;10463263;28;20476;-60
2021/08/12 15:32:53;;;;;;;8.32;4.53;;;;;;;25.43;59.55;101795.41;10463299;28;20041;-59
2021/08/12 15:37:56;;;;;;;5.75;4.95;;;;;;;25.57;59.51;101794.78;10463300;28;20048;-59
2021/08/12 15:42:58;;;;;;;4.05;3.28;;;;;;;25.97;59.19;101783.50;10462438;28;20053;-60
2021/08/12 15:48:00;;;;;;;4.60;4.20;;;;;;;25.86;55.06;101784.63;10462364;28;20053;-60
2021/08/12 15:53:03;;;;;;;4.55;4.13;;;;;;;26.18;59.15;101789.22;10461577;28;20052;-60
2021/08/12 15:58:06;;;;;;;4.80;4.18;;;;;;;26.07;56.73;101784.19;10462246;28;20049;-61
2021/08/12 16:03:08;;;;;;;7.35;4.78;;;;;;;25.28;57.91;101792.50;10461910;28;20045;-59
2021/08/12 16:08:10;;;;;;;7.72;4.95;;;;;;;25.06;59.40;101787.69;10461412;28;20053;-60
2021/08/12 16:13:13;;;;;;;7.97;4.70;;;;;;;25.13;58.96;101796.75;10461280;28;20488;-60
2021/08/12 16:18:15;;;;;;;8.60;5.13;;;;;;;25.50;59.43;101787.56;10461883;28;20056;-59
2021/08/12 16:23:19;;;;;;;7.13;4.80;;;;;;;25.28;60.87;101797.00;10461286;28;20052;-59
2021/08/12 16:28:21;;;;;;;5.30;4.35;;;;;;;24.97;61.87;101792.16;10461155;28;20049;-60
2021/08/12 16:33:24;;;;;;;8.50;5.10;;;;;;;24.65;63.99;101794.47;10461104;28;20052;-60
2021/08/12 16:38:27;;;;;;;5.93;4.97;;;;;;;24.55;63.47;101793.72;10460283;28;20045;-60
2021/08/12 16:43:29;;;;;;;14.30;5.30;;;;;;;24.88;66.14;101798.44;10460231;28;20048;-60
2021/08/12 16:48:32;;;;;;;5.03;4.53;;;;;;;24.85;64.33;101802.28;10458676;28;20424;-60
2021/08/12 16:53:34;;;;;;;7.53;4.32;;;;;;;24.56;67.48;101799.91;10460616;28;20041;-59
2021/08/12 16:58:36;;;;;;;5.90;5.18;;;;;;;24.25;69.11;101806.47;10459552;28;20067;-59
2021/08/12 17:03:39;;;;;;;5.63;4.40;;;;;;;24.13;69.04;101793.50;10460254;28;20051;-60
2021/08/12 17:08:52;;;;;;;8.00;5.13;;;;;;;23.80;71.36;101796.63;10459582;28;20111;-60
2021/08/12 17:13:55;;;;;;;6.90;5.55;;;;;;;23.91;70.67;101785.75;10459397;28;20053;-60
2021/08/12 17:18:57;;;;;;;5.00;4.60;;;;;;;23.93;68.53;101775.75;10459029;28;20045;-60
2021/08/12 17:23:59;;;;;;;7.47;5.25;;;;;;;23.42;72.39;101773.66;10458594;28;20051;-60
2021/08/12 17:29:02;;;;;;;7.25;5.30;;;;;;;23.48;71.90;101786.44;10458436;28;20056;-60
2021/08/12 17:34:04;;;;;;;5.65;5.15;;;;;;;23.15;73.65;101775.34;10458475;28;20041;-60
2021/08/12 17:39:06;;;;;;;7.43;5.78;;;;;;;23.07;73.56;101765.38;10457791;28;20049;-60
2021/08/12 17:44:09;;;;;;;6.95;4.80;;;;;;;23.04;73.08;101770.16;10458153;28;20049;-60
2021/08/12 17:49:27;;;;;;;8.75;5.72;;;;;;;22.68;74.30;101759.28;10457757;28;20051;-60
2021/08/12 17:54:30;;;;;;;7.20;4.78;;;;;;;22.39;75.25;101758.38;10457635;28;20049;-60
2021/08/12 17:59:33;;;;;;;7.68;5.47;;;;;;;;;;10457333;28;20056;-60
2021/08/12 18:04:36;;;;;;;7.97;5.25;;;;;;;22.47;74.23;101751.47;10457829;28;20051;-60
2021/08/12 18:09:44;;;;;;;5.32;4.30;;;;;;;22.30;75.04;101761.06;10456894;28;20451;-60
2021/08/12 18:14:46;;;;;;;8.60;5.38;;;;;;;22.31;74.67;101768.91;10456655;28;20056;-59
2021/08/12 18:19:49;;;;;;;7.47;5.47;;;;;;;22.21;73.24;101752.03;10456837;28;20091;-60
2021/08/12 18:24:56;;;;;;;5.93;5.25;;;;;;;22.04;74.09;101748.22;10457312;28;20041;-60
2021/08/12 18:29:58;;;;;;;7.18;5.00;;;;;;;21.86;74.78;101758.75;10456568;28;20049;-60
2021/08/12 18:35:04;;;;;;;7.82;5.00;;;;;;;21.81;74.73;101750.34;10456429;28;20481;-60
2021/08/12 18:40:08;;;;;;;9.38;5.40;;;;;;;21.77;76.91;101749.78;10456574;28;20063;-59
2021/08/12 18:45:11;;;;;;;6.90;5.10;;;;;;;21.88;75.72;101764.78;10456337;28;20135;-59
2021/08/12 18:50:15;;;;;;;6.28;5.28;;;;;;;21.57;76.77;101774.69;10456294;28;20056;-60
2021/08/12 18:55:18;;;;;;;9.50;5.82;;;;;;;21.56;77.44;101786.34;10456127;28;20055;-60
2021/08/12 19:00:20;;;;;;;7.13;5.28;;;;;;;21.32;77.13;101806.13;10455728;28;20053;-60
2021/08/12 19:05:22;;;;;;;5.90;4.90;;;;;;;21.36;78.01;101804.88;10456016;28;20079;-60
2021/08/12 19:10:25;;;;;;;7.97;5.00;;;;;;;21.11;77.83;101808.81;10454555;28;20052;-60
2021/08/12 19:15:28;;;;;;;11.05;5.93;;;;;;;20.99;78.38;101807.22;10455845;28;20409;-60
2021/08/12 19:20:30;;;;;;;6.32;4.95;;;;;;;20.61;79.56;101817.47;10455471;28;20049;-60
2021/08/12 19:25:33;;;;;;;6.40;5.15;;;;;;;20.41;78.84;101832.44;10455488;28;20056;-60
2021/08/12 19:30:35;;;;;;;6.80;4.53;;;;;;;20.45;78.37;101836.53;10462976;28;20059;-60
2021/08/12 19:35:37;;;;;;;5.43;4.90;;;;;;;20.14;79.10;101848.81;10462988;28;20053;-60
2021/08/12 19:40:40;;;;;;;7.90;4.60;;;;;;;20.08;78.69;101847.53;10461836;28;20045;-60
2021/08/12 19:45:42;;;;;;;14.73;5.85;;;;;;;19.79;79.53;101845.41;10462756;28;20060;-59
2021/08/12 19:50:50;;;;;;;6.13;4.85;;;;;;;19.74;79.11;101852.88;10462486;28;20053;-60
2021/08/12 19:55:53;;;;;;;6.55;5.75;;;;;;;19.50;80.33;101860.94;10462323;28;20061;-60
2021/08/12 20:00:55;;;;;;;8.55;5.68;;;;;;;19.66;78.85;101853.47;10462087;28;20049;-60
2021/08/12 20:05:57;;;;;;;6.90;5.40;;;;;;;19.33;80.40;101851.66;10461832;28;20371;-59
2021/08/12 20:11:00;;;;;;;7.60;5.05;;;;;;;19.10;80.86;101864.06;10461443;28;20049;-59
2021/08/12 20:16:02;;;;;;;7.18;4.72;;;;;;;18.97;80.94;101871.28;10461042;28;20060;-59
2021/08/12 20:21:05;;;;;;;7.80;5.63;;;;;;;18.94;80.55;101867.03;10461223;28;20095;-59
2021/08/12 20:26:07;;;;;;;7.18;5.53;;;;;;;18.80;80.88;101873.34;10460483;28;20053;-59
2021/08/12 20:31:13;;;;;;;9.77;5.72;;;;;;;18.86;81.10;101880.91;10461523;28;20053;-59
2021/08/12 20:36:15;;;;;;;12.40;6.05;;;;;;;18.75;80.80;101876.34;10460990;28;20045;-60
2021/08/12 20:41:18;;;;;;;9.55;5.53;;;;;;;18.77;81.03;101872.75;10459856;28;20049;-59
2021/08/12 20:46:22;;;;;;;8.18;5.43;;;;;;;18.67;81.44;101877.88;10460356;28;20049;-59
2021/08/12 20:51:25;;;;;;;7.63;6.03;;;;;;;18.99;80.22;101882.63;10459652;28;20060;-59
2021/08/12 20:56:29;;;;;;;7.28;4.93;;;;;;;18.66;81.75;101885.00;10460364;28;20049;-59
2021/08/12 21:01:31;;;;;;;6.53;5.50;;;;;;;18.85;81.01;101881.84;10459227;28;20041;-59
2021/08/12 21:06:34;;;;;;;8.52;5.38;;;;;;;18.65;80.77;101888.59;10459393;28;20124;-59
2021/08/12 21:11:38;;;;;;;11.70;5.10;;;;;;;18.54;81.33;101893.84;10459845;28;20053;-60
2021/08/12 21:16:41;;;;;;;6.75;6.07;;;;;;;18.29;82.00;101885.06;10459173;28;20057;-59
2021/08/12 21:21:44;;;;;;;5.85;5.30;;;;;;;18.31;82.05;101877.00;10457548;28;20500;-59
2021/08/12 21:26:46;;;;;;;8.75;5.93;;;;;;;18.44;81.45;101884.88;10458448;28;20048;-59
2021/08/12 21:31:49;;;;;;;10.27;6.20;;;;;;;18.22;82.15;101883.81;10458378;28;20508;-60
2021/08/12 21:36:51;;;;;;;6.60;5.53;;;;;;;18.34;81.32;101877.63;10457974;28;20497;-59
2021/08/12 21:41:53;;;;;;;6.18;5.22;;;;;;;18.15;82.39;101879.91;10458160;28;20401;-59
2021/08/12 21:46:56;;;;;;;9.82;5.53;;;;;;;18.25;81.60;101872.97;10457890;28;20041;-59
2021/08/12 21:51:58;;;;;;;7.22;5.03;;;;;;;18.06;82.38;101867.34;10457112;28;20049;-59
2021/08/12 21:57:00;;;;;;;8.60;5.63;;;;;;;18.05;82.28;101858.53;10457468;28;20053;-59
2021/08/12 22:02:03;;;;;;;9.77;6.15;;;;;;;18.13;81.75;101855.34;10457965;28;20056;-59
2021/08/12 22:07:05;;;;;;;6.88;5.50;;;;;;;17.87;82.68;101849.25;10457273;28;20045;-59
2021/08/12 22:12:08;;;;;;;8.00;6.28;;;;;;;17.92;82.51;101847.13;10457263;28;20053;-59
2021/08/12 22:17:10;;;;;;;6.03;5.50;;;;;;;17.86;82.64;101843.09;10456730;28;20060;-59
2021/08/12 22:22:13;;;;;;;6.45;5.75;;;;;;;17.53;83.92;101862.22;10456829;28;20041;-60
2021/08/12 22:27:15;;;;;;;6.65;4.93;;;;;;;17.60;82.97;101852.88;10456451;28;20433;-59
2021/08/12 22:32:17;;;;;;;6.53;5.72;;;;;;;17.65;82.35;101858.69;10456819;28;20052;-59
2021/08/12 22:37:20;;;;;;;6.68;5.82;;;;;;;17.49;83.70;101853.63;10456206;28;20489;-59
2021/08/12 22:42:22;;;;;;;8.30;6.35;;;;;;;17.52;83.22;101845.50;10456563;28;20045;-59
2021/08/12 22:47:24;;;;;;;7.63;6.50;;;;;;;17.48;83.09;101843.16;10456739;28;20045;-59
2021/08/12 22:52:27;;;;;;;12.85;6.30;;;;;;;17.44;83.03;101835.41;10456700;28;20045;-59
2021/08/12 22:57:29;;;;;;;7.80;6.03;;;;;;;17.47;82.46;101834.38;10456105;28;20048;-59
2021/08/12 23:02:31;;;;;;;9.23;6.00;;;;;;;17.42;83.18;101832.03;10459437;28;20049;-59
2021/08/12 23:07:34;;;;;;;5.95;5.45;;;;;;;17.41;82.71;101832.97;10464058;28;20045;-60
2021/08/12 23:12:36;;;;;;;5.95;5.30;;;;;;;17.30;83.04;101839.97;10463503;28;20063;-59
2021/08/12 23:17:40;;;;;;;6.30;5.60;;;;;;;17.18;84.04;101841.69;10463523;28;20041;-59